createdAt,value
2019-01-30T00:00:32.973Z,0.93
2019-01-30T00:01:12.782Z,0.91
2019-01-30T00:01:48.171Z,0.83
2019-01-30T00:02:23.672Z,0.90
2019-01-30T00:02:59.183Z,0.99
2019-01-30T00:03:34.636Z,0.93
2019-01-30T00:04:10.274Z,0.99
2019-01-30T00:04:45.944Z,0.99
2019-01-30T00:05:21.402Z,0.93
2019-01-30T00:05:56.830Z,0.90
2019-01-30T00:06:32.542Z,0.96
2019-01-30T00:07:07.974Z,0.70
2019-01-30T00:07:43.366Z,1.01
2019-01-30T00:08:19.025Z,0.96
2019-01-30T00:08:54.434Z,0.97
2019-01-30T00:09:29.988Z,0.89
2019-01-30T00:10:07.222Z,0.91
2019-01-30T00:10:42.611Z,0.95
2019-01-30T00:11:18.295Z,0.91
2019-01-30T00:11:53.956Z,0.84
2019-01-30T00:12:29.416Z,0.85
2019-01-30T00:13:05.483Z,0.92
2019-01-30T00:13:40.976Z,0.81
2019-01-30T00:14:16.709Z,0.86
2019-01-30T00:14:52.677Z,0.89
2019-01-30T00:15:28.223Z,0.80
2019-01-30T00:16:04.086Z,0.82
2019-01-30T00:16:39.480Z,0.82
2019-01-30T00:17:15.195Z,0.83
2019-01-30T00:17:50.825Z,0.93
2019-01-30T00:18:26.240Z,0.95
2019-01-30T00:19:01.960Z,0.86
2019-01-30T00:19:37.642Z,0.80
2019-01-30T00:20:13.426Z,0.83
2019-01-30T00:20:48.851Z,0.79
2019-01-30T00:21:24.316Z,0.79
2019-01-30T00:21:59.789Z,0.84
2019-01-30T00:22:35.184Z,0.94
2019-01-30T00:23:10.612Z,0.93
2019-01-30T00:23:46.048Z,1.01
2019-01-30T00:24:21.437Z,1.04
2019-01-30T00:24:56.906Z,0.97
2019-01-30T00:25:32.626Z,1.00
2019-01-30T00:26:08.046Z,1.01
2019-01-30T00:26:43.506Z,0.96
2019-01-30T00:27:18.938Z,0.93
2019-01-30T00:27:54.338Z,0.91
2019-01-30T00:28:29.810Z,0.84
2019-01-30T00:29:05.444Z,0.87
2019-01-30T00:29:41.079Z,0.98
2019-01-30T00:30:17.155Z,0.89
2019-01-30T00:30:52.554Z,1.02
2019-01-30T00:31:28.197Z,0.98
2019-01-30T00:32:04.070Z,1.03
2019-01-30T00:32:39.725Z,0.98
2019-01-30T00:33:15.136Z,0.96
2019-01-30T00:33:50.534Z,0.86
2019-01-30T00:34:26.484Z,0.81
2019-01-30T00:35:02.313Z,0.89
2019-01-30T00:35:37.714Z,0.97
2019-01-30T00:36:13.426Z,0.93
2019-01-30T00:36:49.081Z,0.88
2019-01-30T00:37:24.489Z,0.86
2019-01-30T00:37:59.974Z,0.86
2019-01-30T00:38:35.415Z,0.94
2019-01-30T00:39:11.110Z,0.94
2019-01-30T00:39:46.775Z,0.91
2019-01-30T00:40:22.624Z,0.92
2019-01-30T00:40:58.069Z,0.91
2019-01-30T00:41:33.560Z,0.92
2019-01-30T00:42:09.080Z,0.84
2019-01-30T00:42:44.520Z,0.90
2019-01-30T00:43:20.174Z,0.91
2019-01-30T00:43:55.624Z,0.87
2019-01-30T00:44:32.119Z,0.75
2019-01-30T00:45:10.019Z,0.90
2019-01-30T00:45:45.690Z,0.88
2019-01-30T00:46:21.167Z,0.88
2019-01-30T00:46:56.712Z,0.89
2019-01-30T00:47:34.884Z,0.91
2019-01-30T00:48:09.592Z,0.91
2019-01-30T00:48:44.993Z,0.90
2019-01-30T00:49:20.491Z,0.84
2019-01-30T00:49:56.148Z,0.78
2019-01-30T00:50:31.865Z,0.83
2019-01-30T00:51:07.266Z,0.77
2019-01-30T00:51:42.932Z,0.76
2019-01-30T00:52:18.599Z,0.86
2019-01-30T00:52:54.025Z,0.86
2019-01-30T00:53:30.069Z,0.75
2019-01-30T00:54:05.627Z,0.75
2019-01-30T00:54:41.014Z,0.72
2019-01-30T00:55:16.538Z,0.79
2019-01-30T00:55:51.936Z,0.76
2019-01-30T00:56:27.359Z,0.84
2019-01-30T00:57:02.790Z,0.85
2019-01-30T00:57:38.192Z,0.82
2019-01-30T00:58:13.851Z,0.72
2019-01-30T00:58:49.814Z,0.72
2019-01-30T00:59:25.496Z,0.65
2019-01-30T01:00:00.979Z,0.62
2019-01-30T01:00:36.514Z,0.73
2019-01-30T01:01:11.943Z,0.68
2019-01-30T01:01:47.612Z,0.70
2019-01-30T01:02:22.990Z,0.70
2019-01-30T01:02:58.512Z,0.66
2019-01-30T01:03:33.950Z,0.73
2019-01-30T01:04:09.330Z,0.73
2019-01-30T01:04:44.725Z,0.64
2019-01-30T01:05:20.595Z,0.76
2019-01-30T01:05:56.005Z,0.70
2019-01-30T01:06:31.489Z,0.77
2019-01-30T01:07:06.996Z,0.80
2019-01-30T01:07:42.923Z,0.70
2019-01-30T01:08:18.311Z,0.67
2019-01-30T01:08:53.780Z,0.62
2019-01-30T01:09:29.208Z,0.69
2019-01-30T01:10:06.655Z,0.69
2019-01-30T01:10:42.128Z,0.58
2019-01-30T01:11:17.595Z,0.66
2019-01-30T01:11:52.976Z,0.65
2019-01-30T01:12:28.663Z,0.68
2019-01-30T01:13:04.353Z,0.62
2019-01-30T01:13:40.006Z,0.71
2019-01-30T01:14:15.405Z,0.75
2019-01-30T01:14:50.779Z,0.68
2019-01-30T01:15:26.195Z,0.66
2019-01-30T01:16:02.068Z,0.65
2019-01-30T01:16:37.474Z,0.68
2019-01-30T01:17:12.862Z,0.56
2019-01-30T01:17:48.371Z,0.56
2019-01-30T01:18:24.031Z,0.52
2019-01-30T01:18:59.801Z,0.63
2019-01-30T01:19:35.248Z,0.58
2019-01-30T01:20:12.706Z,0.47
2019-01-30T01:20:48.355Z,0.55
2019-01-30T01:21:23.735Z,0.59
2019-01-30T01:21:59.245Z,0.55
2019-01-30T01:22:34.948Z,0.52
2019-01-30T01:23:10.624Z,0.51
2019-01-30T01:23:46.240Z,0.56
2019-01-30T01:24:21.886Z,0.50
2019-01-30T01:24:57.302Z,0.59
2019-01-30T01:25:32.801Z,0.54
2019-01-30T01:26:08.485Z,0.49
2019-01-30T01:26:43.912Z,0.44
2019-01-30T01:27:19.290Z,0.59
2019-01-30T01:27:54.705Z,0.58
2019-01-30T01:28:30.122Z,0.51
2019-01-30T01:29:05.841Z,0.45
2019-01-30T01:29:41.224Z,0.49
2019-01-30T01:30:25.405Z,0.44
2019-01-30T01:30:56.415Z,0.49
2019-01-30T01:31:31.816Z,0.45
2019-01-30T01:32:07.229Z,0.43
2019-01-30T01:32:42.607Z,0.46
2019-01-30T01:33:18.009Z,0.53
2019-01-30T01:33:53.404Z,0.50
2019-01-30T01:34:29.162Z,0.43
2019-01-30T01:35:05.684Z,0.36
2019-01-30T01:35:41.053Z,0.40
2019-01-30T01:36:16.683Z,0.36
2019-01-30T01:36:52.071Z,0.42
2019-01-30T01:37:27.483Z,0.48
2019-01-30T01:38:02.924Z,0.43
2019-01-30T01:38:38.352Z,0.40
2019-01-30T01:39:13.734Z,0.46
2019-01-30T01:39:50.947Z,0.42
2019-01-30T01:40:26.396Z,0.37
2019-01-30T01:41:01.815Z,0.40
2019-01-30T01:41:37.459Z,0.50
2019-01-30T01:42:12.869Z,0.52
2019-01-30T01:42:48.575Z,0.50
2019-01-30T01:43:24.005Z,0.40
2019-01-30T01:43:59.438Z,0.46
2019-01-30T01:44:35.094Z,0.51
2019-01-30T01:45:13.168Z,0.49
2019-01-30T01:45:48.820Z,0.56
2019-01-30T01:46:24.231Z,0.46
2019-01-30T01:46:59.921Z,0.54
2019-01-30T01:47:35.422Z,0.44
2019-01-30T01:48:10.850Z,0.33
2019-01-30T01:48:46.259Z,0.40
2019-01-30T01:49:22.014Z,0.30
2019-01-30T01:49:57.447Z,0.05
2019-01-30T01:50:33.106Z,0.27
2019-01-30T01:51:08.617Z,0.18
2019-01-30T01:51:44.090Z,0.22
2019-01-30T01:52:19.564Z,0.23
2019-01-30T01:52:54.948Z,0.17
2019-01-30T01:53:30.504Z,0.09
2019-01-30T01:54:05.918Z,0.19
2019-01-30T01:54:41.287Z,0.21
2019-01-30T01:55:16.877Z,0.16
2019-01-30T01:55:52.508Z,0.20
2019-01-30T01:56:27.943Z,0.14
2019-01-30T01:57:03.335Z,0.15
2019-01-30T01:57:38.745Z,0.12
2019-01-30T01:58:14.443Z,0.23
2019-01-30T01:58:49.828Z,0.24
2019-01-30T01:59:25.246Z,0.15
2019-01-30T02:00:00.753Z,0.12
2019-01-30T02:00:36.188Z,0.05
2019-01-30T02:01:11.588Z,0.19
2019-01-30T02:01:47.059Z,0.15
2019-01-30T02:02:22.719Z,0.13
2019-01-30T02:02:58.559Z,0.03
2019-01-30T02:03:34.019Z,0.10
2019-01-30T02:04:09.414Z,0.13
2019-01-30T02:04:44.850Z,0.08
2019-01-30T02:05:21.566Z,0.00
2019-01-30T02:05:57.224Z,0.12
2019-01-30T02:06:32.618Z,0.12
2019-01-30T02:07:08.006Z,0.22
2019-01-30T02:07:43.697Z,0.18
2019-01-30T02:08:19.068Z,0.13
2019-01-30T02:08:54.510Z,0.13
2019-01-30T02:09:29.943Z,0.11
2019-01-30T02:10:07.079Z,0.18
2019-01-30T02:10:42.470Z,0.19
2019-01-30T02:11:17.852Z,0.29
2019-01-30T02:11:53.227Z,0.27
2019-01-30T02:12:28.989Z,0.27
2019-01-30T02:13:04.826Z,0.27
2019-01-30T02:13:40.478Z,0.21
2019-01-30T02:14:16.117Z,0.21
2019-01-30T02:14:51.505Z,0.20
2019-01-30T02:15:27.022Z,0.21
2019-01-30T02:16:02.551Z,0.20
2019-01-30T02:16:37.946Z,0.16
2019-01-30T02:17:13.341Z,0.13
2019-01-30T02:17:49.002Z,0.16
2019-01-30T02:18:24.703Z,0.08
2019-01-30T02:19:00.280Z,0.08
2019-01-30T02:19:36.015Z,0.08
2019-01-30T02:20:14.678Z,0.08
2019-01-30T02:20:50.039Z,0.13
2019-01-30T02:21:25.441Z,0.11
2019-01-30T02:22:01.381Z,0.24
2019-01-30T02:22:36.771Z,0.17
2019-01-30T02:23:12.252Z,0.17
2019-01-30T02:23:47.658Z,0.14
2019-01-30T02:24:23.345Z,0.19
2019-01-30T02:24:58.760Z,0.16
2019-01-30T02:25:34.170Z,0.15
2019-01-30T02:26:09.791Z,0.15
2019-01-30T02:26:45.444Z,0.14
2019-01-30T02:27:20.845Z,0.11
2019-01-30T02:27:56.831Z,0.17
2019-01-30T02:28:32.238Z,0.31
2019-01-30T02:29:07.748Z,0.20
2019-01-30T02:29:43.147Z,0.26
2019-01-30T02:30:20.647Z,0.24
2019-01-30T02:30:56.157Z,0.25
2019-01-30T02:31:31.712Z,0.20
2019-01-30T02:32:07.393Z,0.08
2019-01-30T02:32:42.780Z,0.24
2019-01-30T02:33:18.202Z,0.19
2019-01-30T02:33:53.753Z,0.24
2019-01-30T02:34:29.484Z,0.31
2019-01-30T02:35:05.732Z,0.17
2019-01-30T02:35:41.139Z,0.17
2019-01-30T02:36:16.837Z,0.16
2019-01-30T02:36:58.615Z,0.16
2019-01-30T02:37:34.375Z,0.26
2019-01-30T02:38:09.764Z,0.21
2019-01-30T02:38:45.191Z,0.41
2019-01-30T02:39:20.872Z,0.42
2019-01-30T02:39:56.299Z,0.42
2019-01-30T02:40:31.885Z,0.39
2019-01-30T02:41:07.360Z,0.35
2019-01-30T02:41:43.033Z,0.33
2019-01-30T02:42:18.451Z,0.27
2019-01-30T02:42:54.216Z,0.27
2019-01-30T02:43:29.988Z,0.27
2019-01-30T02:44:05.563Z,0.40
2019-01-30T02:44:40.969Z,0.43
2019-01-30T02:45:18.375Z,0.43
2019-01-30T02:45:54.214Z,0.43
2019-01-30T02:46:30.455Z,0.49
2019-01-30T02:47:05.961Z,0.41
2019-01-30T02:47:41.391Z,0.43
2019-01-30T02:48:16.838Z,0.51
2019-01-30T02:48:52.255Z,0.50
2019-01-30T02:49:27.785Z,0.47
2019-01-30T02:50:03.464Z,0.38
2019-01-30T02:50:38.914Z,0.38
2019-01-30T02:51:14.341Z,0.37
2019-01-30T02:51:49.771Z,0.44
2019-01-30T02:52:25.187Z,0.49
2019-01-30T02:53:00.624Z,0.53
2019-01-30T02:53:36.126Z,0.56
2019-01-30T02:54:11.544Z,0.44
2019-01-30T02:54:46.972Z,0.40
2019-01-30T02:55:22.476Z,0.36
2019-01-30T02:55:57.952Z,0.43
2019-01-30T02:56:33.688Z,0.36
2019-01-30T02:57:09.220Z,0.34
2019-01-30T02:57:44.609Z,0.45
2019-01-30T02:58:20.026Z,0.40
2019-01-30T02:58:55.935Z,0.37
2019-01-30T02:59:31.416Z,0.35
2019-01-30T03:00:09.179Z,0.28
2019-01-30T03:00:44.893Z,0.29
2019-01-30T03:01:20.928Z,0.25
2019-01-30T03:02:14.006Z,0.25
2019-01-30T03:02:49.549Z,0.31
2019-01-30T03:03:24.941Z,0.46
2019-01-30T03:04:00.780Z,0.43
2019-01-30T03:04:36.271Z,0.42
2019-01-30T03:05:12.381Z,0.42
2019-01-30T03:05:47.808Z,0.55
2019-01-30T03:06:23.238Z,0.49
2019-01-30T03:06:58.764Z,0.60
2019-01-30T03:07:34.350Z,0.65
2019-01-30T03:08:10.045Z,0.63
2019-01-30T03:08:45.608Z,0.54
2019-01-30T03:09:21.323Z,0.46
2019-01-30T03:09:57.083Z,0.56
2019-01-30T03:10:32.572Z,0.49
2019-01-30T03:11:08.306Z,0.47
2019-01-30T03:11:43.758Z,0.46
2019-01-30T03:12:19.188Z,0.52
2019-01-30T03:12:54.607Z,0.55
2019-01-30T03:13:30.053Z,0.48
2019-01-30T03:14:05.511Z,0.56
2019-01-30T03:14:40.940Z,0.43
2019-01-30T03:15:16.929Z,0.41
2019-01-30T03:15:52.630Z,0.38
2019-01-30T03:16:28.093Z,0.35
2019-01-30T03:17:03.580Z,0.42
2019-01-30T03:17:39.001Z,0.58
2019-01-30T03:18:14.932Z,0.61
2019-01-30T03:18:50.661Z,0.60
2019-01-30T03:19:26.482Z,0.54
2019-01-30T03:20:02.281Z,0.47
2019-01-30T03:20:37.968Z,0.41
2019-01-30T03:21:13.405Z,0.44
2019-01-30T03:21:48.838Z,0.39
2019-01-30T03:22:24.529Z,0.29
2019-01-30T03:23:00.088Z,0.24
2019-01-30T03:23:35.553Z,0.32
2019-01-30T03:24:11.025Z,0.31
2019-01-30T03:24:46.423Z,0.47
2019-01-30T03:25:22.982Z,0.43
2019-01-30T03:25:59.010Z,0.47
2019-01-30T03:26:34.457Z,0.47
2019-01-30T03:27:10.428Z,0.35
2019-01-30T03:27:45.894Z,0.28
2019-01-30T03:28:21.419Z,0.34
2019-01-30T03:28:56.910Z,0.33
2019-01-30T03:29:32.731Z,0.33
2019-01-30T03:30:11.783Z,0.30
2019-01-30T03:30:47.223Z,0.30
2019-01-30T03:31:22.748Z,0.26
2019-01-30T03:31:58.523Z,0.30
2019-01-30T03:32:34.025Z,0.32
2019-01-30T03:33:09.451Z,0.30
2019-01-30T03:33:45.166Z,0.34
2019-01-30T03:34:20.607Z,0.38
2019-01-30T03:34:56.366Z,0.44
2019-01-30T03:35:32.107Z,0.53
2019-01-30T03:36:07.565Z,0.55
2019-01-30T03:36:42.988Z,0.52
2019-01-30T03:37:18.507Z,0.51
2019-01-30T03:37:53.924Z,0.42
2019-01-30T03:38:29.423Z,0.48
2019-01-30T03:39:07.740Z,0.45
2019-01-30T03:39:43.430Z,0.41
2019-01-30T03:40:19.373Z,0.41
2019-01-30T03:40:54.817Z,0.45
2019-01-30T03:41:30.586Z,0.41
2019-01-30T03:42:06.263Z,0.38
2019-01-30T03:42:41.674Z,0.35
2019-01-30T03:43:17.095Z,0.31
2019-01-30T03:43:52.507Z,0.49
2019-01-30T03:44:28.069Z,0.47
2019-01-30T03:45:04.429Z,0.50
2019-01-30T03:45:39.987Z,0.47
2019-01-30T03:46:15.674Z,0.44
2019-01-30T03:46:51.378Z,0.44
2019-01-30T03:47:26.849Z,0.42
2019-01-30T03:48:02.345Z,0.43
2019-01-30T03:48:38.078Z,0.41
2019-01-30T03:49:13.596Z,0.59
2019-01-30T03:49:49.308Z,0.54
2019-01-30T03:50:25.064Z,0.53
2019-01-30T03:51:00.493Z,0.59
2019-01-30T03:51:36.073Z,0.67
2019-01-30T03:52:11.496Z,0.64
2019-01-30T03:52:46.955Z,0.61
2019-01-30T03:53:22.456Z,0.65
2019-01-30T03:53:58.247Z,0.60
2019-01-30T03:54:34.022Z,0.64
2019-01-30T03:55:10.889Z,0.85
2019-01-30T03:55:46.299Z,0.82
2019-01-30T03:56:22.067Z,0.93
2019-01-30T03:56:57.579Z,0.97
2019-01-30T03:57:33.325Z,0.80
2019-01-30T03:58:08.775Z,0.73
2019-01-30T03:58:44.197Z,0.69
2019-01-30T03:59:19.869Z,0.73
2019-01-30T03:59:55.409Z,0.70
2019-01-30T04:00:30.977Z,0.72
2019-01-30T04:01:06.697Z,0.70
2019-01-30T04:01:42.105Z,0.59
2019-01-30T04:02:17.521Z,0.61
2019-01-30T04:02:53.167Z,0.57
2019-01-30T04:03:28.610Z,0.62
2019-01-30T04:04:04.308Z,0.61
2019-01-30T04:04:39.774Z,0.64
2019-01-30T04:05:15.455Z,0.65
2019-01-30T04:05:50.868Z,0.83
2019-01-30T04:06:26.465Z,0.96
2019-01-30T04:07:02.054Z,1.00
2019-01-30T04:07:37.479Z,0.97
2019-01-30T04:08:13.201Z,0.96
2019-01-30T04:08:48.684Z,1.02
2019-01-30T04:09:24.100Z,0.86
2019-01-30T04:09:59.738Z,0.93
2019-01-30T04:10:35.170Z,0.90
2019-01-30T04:11:10.798Z,0.92
2019-01-30T04:11:46.170Z,0.96
2019-01-30T04:12:21.543Z,0.92
2019-01-30T04:12:57.361Z,0.60
2019-01-30T04:13:32.822Z,0.87
2019-01-30T04:14:08.505Z,0.88
2019-01-30T04:14:43.954Z,0.85
2019-01-30T04:15:19.411Z,0.93
2019-01-30T04:15:55.172Z,0.92
2019-01-30T04:16:30.808Z,0.84
2019-01-30T04:17:06.282Z,0.89
2019-01-30T04:17:41.790Z,0.95
2019-01-30T04:18:17.589Z,1.18
2019-01-30T04:18:53.304Z,1.12
2019-01-30T04:19:29.074Z,1.23
2019-01-30T04:20:05.231Z,1.19
2019-01-30T04:20:40.608Z,1.11
2019-01-30T04:21:15.991Z,1.08
2019-01-30T04:21:51.369Z,1.02
2019-01-30T04:22:26.794Z,0.97
2019-01-30T04:23:02.266Z,0.90
2019-01-30T04:23:37.731Z,0.94
2019-01-30T04:24:13.230Z,0.93
2019-01-30T04:24:48.623Z,0.95
2019-01-30T04:25:24.007Z,0.90
2019-01-30T04:25:59.443Z,0.92
2019-01-30T04:26:34.886Z,0.81
2019-01-30T04:27:10.546Z,0.88
2019-01-30T04:27:45.942Z,0.94
2019-01-30T04:28:21.314Z,0.93
2019-01-30T04:28:56.798Z,0.85
2019-01-30T04:29:32.322Z,0.81
2019-01-30T04:30:11.304Z,0.85
2019-01-30T04:30:46.943Z,0.90
2019-01-30T04:31:22.612Z,0.92
2019-01-30T04:31:58.318Z,0.90
2019-01-30T04:32:33.766Z,0.87
2019-01-30T04:33:09.160Z,0.92
2019-01-30T04:33:44.644Z,1.01
2019-01-30T04:34:20.060Z,0.88
2019-01-30T04:34:55.484Z,0.90
2019-01-30T04:35:30.936Z,0.90
2019-01-30T04:36:06.369Z,0.96
2019-01-30T04:36:41.759Z,0.93
2019-01-30T04:37:17.432Z,0.95
2019-01-30T04:37:53.083Z,0.91
2019-01-30T04:38:28.691Z,0.82
2019-01-30T04:39:05.590Z,0.81
2019-01-30T04:39:40.998Z,0.81
2019-01-30T04:40:18.315Z,0.92
2019-01-30T04:40:54.008Z,0.94
2019-01-30T04:41:29.542Z,1.15
2019-01-30T04:42:05.108Z,1.12
2019-01-30T04:42:40.510Z,1.04
2019-01-30T04:43:16.146Z,0.97
2019-01-30T04:43:51.537Z,1.11
2019-01-30T04:44:27.277Z,1.02
2019-01-30T04:45:02.992Z,1.02
2019-01-30T04:45:38.390Z,0.90
2019-01-30T04:46:13.773Z,0.80
2019-01-30T04:46:49.468Z,0.85
2019-01-30T04:47:25.180Z,0.85
2019-01-30T04:48:00.639Z,0.83
2019-01-30T04:48:36.085Z,0.91
2019-01-30T04:49:11.477Z,0.93
2019-01-30T04:49:46.903Z,1.01
2019-01-30T04:50:22.322Z,0.95
2019-01-30T04:50:58.139Z,1.01
2019-01-30T04:51:33.598Z,1.11
2019-01-30T04:52:09.258Z,1.09
2019-01-30T04:52:44.739Z,1.10
2019-01-30T04:53:20.415Z,1.03
2019-01-30T04:53:55.919Z,0.96
2019-01-30T04:54:31.452Z,1.04
2019-01-30T04:55:07.079Z,1.08
2019-01-30T04:55:42.481Z,1.07
2019-01-30T04:56:18.159Z,0.84
2019-01-30T04:56:53.559Z,1.14
2019-01-30T04:57:29.233Z,1.24
2019-01-30T04:58:04.781Z,1.27
2019-01-30T04:58:40.193Z,1.18
2019-01-30T04:59:15.574Z,1.14
2019-01-30T04:59:50.969Z,1.13
2019-01-30T05:00:26.710Z,1.01
2019-01-30T05:01:02.473Z,0.95
2019-01-30T05:01:49.230Z,0.91
2019-01-30T05:02:15.342Z,0.96
2019-01-30T05:02:51.097Z,1.05
2019-01-30T05:03:26.491Z,1.18
2019-01-30T05:04:02.147Z,1.38
2019-01-30T05:04:37.596Z,1.25
2019-01-30T05:05:13.419Z,1.18
2019-01-30T05:05:48.791Z,1.11
2019-01-30T05:06:24.436Z,1.02
2019-01-30T05:06:59.914Z,1.14
2019-01-30T05:07:35.357Z,1.18
2019-01-30T05:08:11.015Z,1.31
2019-01-30T05:08:46.426Z,1.37
2019-01-30T05:09:21.795Z,1.23
2019-01-30T05:09:57.232Z,1.14
2019-01-30T05:10:32.662Z,1.10
2019-01-30T05:11:08.059Z,1.05
2019-01-30T05:11:43.458Z,1.00
2019-01-30T05:12:18.863Z,0.93
2019-01-30T05:12:54.292Z,0.95
2019-01-30T05:13:29.705Z,0.91
2019-01-30T05:14:05.425Z,0.88
2019-01-30T05:14:41.109Z,0.89
2019-01-30T05:15:17.869Z,0.97
2019-01-30T05:15:53.345Z,0.98
2019-01-30T05:16:28.775Z,0.96
2019-01-30T05:17:04.309Z,0.98
2019-01-30T05:17:39.705Z,0.92
2019-01-30T05:18:15.418Z,0.94
2019-01-30T05:18:50.809Z,0.88
2019-01-30T05:19:26.295Z,0.88
2019-01-30T05:20:01.852Z,0.85
2019-01-30T05:20:37.267Z,0.89
2019-01-30T05:21:12.674Z,0.95
2019-01-30T05:21:48.061Z,0.92
2019-01-30T05:22:23.787Z,0.90
2019-01-30T05:22:59.261Z,0.87
2019-01-30T05:23:34.705Z,0.90
2019-01-30T05:24:10.101Z,0.96
2019-01-30T05:24:45.764Z,0.91
2019-01-30T05:25:21.154Z,0.97
2019-01-30T05:25:59.939Z,0.91
2019-01-30T05:26:34.767Z,1.08
2019-01-30T05:27:10.184Z,1.02
2019-01-30T05:27:45.581Z,0.92
2019-01-30T05:28:21.251Z,1.01
2019-01-30T05:28:56.807Z,1.06
2019-01-30T05:29:32.552Z,1.08
2019-01-30T05:30:11.640Z,1.05
2019-01-30T05:30:47.108Z,1.00
2019-01-30T05:31:22.509Z,1.13
2019-01-30T05:32:01.267Z,1.06
2019-01-30T05:32:35.416Z,1.05
2019-01-30T05:33:10.832Z,1.16
2019-01-30T05:33:46.253Z,1.10
2019-01-30T05:34:21.652Z,1.20
2019-01-30T05:34:57.193Z,1.22
2019-01-30T05:35:32.640Z,1.16
2019-01-30T05:36:08.077Z,1.10
2019-01-30T05:36:43.727Z,1.18
2019-01-30T05:37:19.394Z,1.20
2019-01-30T05:37:55.104Z,1.27
2019-01-30T05:38:30.651Z,1.28
2019-01-30T05:39:09.676Z,1.40
2019-01-30T05:39:45.145Z,1.35
2019-01-30T05:40:20.630Z,1.26
2019-01-30T05:40:56.047Z,1.24
2019-01-30T05:41:31.735Z,1.27
2019-01-30T05:42:07.248Z,1.33
2019-01-30T05:42:42.663Z,1.33
2019-01-30T05:43:18.065Z,1.24
2019-01-30T05:43:53.705Z,1.17
2019-01-30T05:44:29.158Z,1.15
2019-01-30T05:45:05.600Z,1.16
2019-01-30T05:45:40.972Z,1.19
2019-01-30T05:46:16.473Z,1.31
2019-01-30T05:46:51.969Z,1.32
2019-01-30T05:47:27.402Z,1.31
2019-01-30T05:48:02.836Z,1.28
2019-01-30T05:48:38.259Z,1.26
2019-01-30T05:49:13.682Z,1.23
2019-01-30T05:49:49.216Z,1.28
2019-01-30T05:50:24.611Z,1.40
2019-01-30T05:51:00.092Z,1.33
2019-01-30T05:51:35.827Z,1.24
2019-01-30T05:52:11.480Z,1.39
2019-01-30T05:52:47.219Z,1.23
2019-01-30T05:53:22.708Z,1.16
2019-01-30T05:53:58.182Z,1.25
2019-01-30T05:54:34.004Z,1.21
2019-01-30T05:55:09.789Z,1.16
2019-01-30T05:55:45.194Z,1.14
2019-01-30T05:56:20.578Z,1.14
2019-01-30T05:56:56.032Z,1.15
2019-01-30T05:57:31.439Z,1.11
2019-01-30T05:58:07.047Z,1.22
2019-01-30T05:58:42.434Z,1.18
2019-01-30T05:59:18.196Z,1.22
2019-01-30T05:59:53.640Z,1.22
2019-01-30T06:00:34.621Z,1.21
2019-01-30T06:01:10.009Z,1.16
2019-01-30T06:01:45.469Z,1.25
2019-01-30T06:02:20.933Z,1.26
2019-01-30T06:02:56.554Z,1.30
2019-01-30T06:03:31.996Z,1.35
2019-01-30T06:04:07.374Z,1.41
2019-01-30T06:04:42.773Z,1.41
2019-01-30T06:05:18.468Z,1.38
2019-01-30T06:05:53.891Z,1.40
2019-01-30T06:06:29.376Z,1.42
2019-01-30T06:07:04.827Z,1.33
2019-01-30T06:07:40.207Z,1.27
2019-01-30T06:08:15.768Z,1.31
2019-01-30T06:08:51.461Z,1.26
2019-01-30T06:09:26.869Z,1.22
2019-01-30T06:10:02.380Z,1.26
2019-01-30T06:10:37.821Z,1.27
2019-01-30T06:11:13.225Z,1.23
2019-01-30T06:11:48.617Z,1.40
2019-01-30T06:12:24.004Z,1.40
2019-01-30T06:12:59.458Z,1.34
2019-01-30T06:13:34.921Z,1.41
2019-01-30T06:14:10.384Z,1.39
2019-01-30T06:14:46.046Z,1.42
2019-01-30T06:15:21.794Z,1.35
2019-01-30T06:15:57.654Z,1.27
2019-01-30T06:16:33.057Z,1.34
2019-01-30T06:17:09.754Z,1.31
2019-01-30T06:17:45.505Z,1.26
2019-01-30T06:18:20.876Z,1.34
2019-01-30T06:18:56.520Z,1.29
2019-01-30T06:19:32.060Z,1.31
2019-01-30T06:20:10.305Z,1.32
2019-01-30T06:20:45.716Z,1.26
2019-01-30T06:21:21.113Z,1.22
2019-01-30T06:21:56.518Z,1.21
2019-01-30T06:22:31.932Z,1.22
2019-01-30T06:23:07.356Z,1.26
2019-01-30T06:23:42.869Z,1.22
2019-01-30T06:24:18.208Z,1.09
2019-01-30T06:24:53.589Z,1.06
2019-01-30T06:25:29.205Z,1.13
2019-01-30T06:26:04.630Z,1.04
2019-01-30T06:26:40.135Z,0.99
2019-01-30T06:27:15.756Z,1.00
2019-01-30T06:27:51.136Z,1.07
2019-01-30T06:28:29.289Z,1.02
2019-01-30T06:29:03.864Z,1.01
2019-01-30T06:29:39.287Z,1.18
2019-01-30T06:30:16.282Z,1.17
2019-01-30T06:30:51.703Z,1.17
2019-01-30T06:31:27.211Z,1.24
2019-01-30T06:32:02.953Z,1.32
2019-01-30T06:32:38.380Z,1.27
2019-01-30T06:33:13.801Z,1.39
2019-01-30T06:33:49.201Z,1.43
2019-01-30T06:34:24.592Z,1.32
2019-01-30T06:35:00.004Z,1.23
2019-01-30T06:35:35.755Z,1.23
2019-01-30T06:36:11.246Z,1.19
2019-01-30T06:36:46.652Z,1.38
2019-01-30T06:37:22.170Z,1.32
2019-01-30T06:37:57.867Z,1.34
2019-01-30T06:38:33.386Z,1.24
2019-01-30T06:39:09.488Z,1.18
2019-01-30T06:39:45.562Z,1.18
2019-01-30T06:40:26.004Z,1.18
2019-01-30T06:41:01.612Z,1.16
2019-01-30T06:41:37.039Z,1.29
2019-01-30T06:42:12.708Z,1.33
2019-01-30T06:42:48.376Z,1.44
2019-01-30T06:43:24.038Z,1.29
2019-01-30T06:43:59.642Z,1.22
2019-01-30T06:44:35.055Z,1.20
2019-01-30T06:45:10.691Z,1.21
2019-01-30T06:45:46.652Z,1.17
2019-01-30T06:46:22.249Z,1.16
2019-01-30T06:46:57.689Z,1.07
2019-01-30T06:47:33.145Z,1.12
2019-01-30T06:48:08.548Z,1.12
2019-01-30T06:48:44.060Z,1.14
2019-01-30T06:49:19.481Z,1.16
2019-01-30T06:49:54.897Z,1.16
2019-01-30T06:50:30.498Z,1.32
2019-01-30T06:51:05.984Z,1.34
2019-01-30T06:51:41.369Z,1.40
2019-01-30T06:52:16.777Z,1.27
2019-01-30T06:52:52.730Z,1.15
2019-01-30T06:53:28.481Z,1.21
2019-01-30T06:54:03.985Z,1.18
2019-01-30T06:54:41.067Z,1.14
2019-01-30T06:55:16.522Z,1.10
2019-01-30T06:55:52.207Z,1.01
2019-01-30T06:56:27.657Z,0.96
2019-01-30T06:57:03.110Z,1.05
2019-01-30T06:57:38.812Z,0.95
2019-01-30T06:58:14.217Z,0.85
2019-01-30T06:58:49.609Z,0.81
2019-01-30T06:59:25.042Z,0.84
2019-01-30T07:00:00.462Z,0.75
2019-01-30T07:00:35.984Z,0.88
2019-01-30T07:01:11.472Z,0.71
2019-01-30T07:01:46.874Z,0.70
2019-01-30T07:02:31.796Z,0.69
2019-01-30T07:02:59.875Z,0.95
2019-01-30T07:03:35.498Z,0.94
2019-01-30T07:04:11.029Z,0.94
2019-01-30T07:04:46.723Z,1.01
2019-01-30T07:05:22.114Z,0.82
2019-01-30T07:05:57.618Z,0.67
2019-01-30T07:06:33.083Z,0.66
2019-01-30T07:07:08.608Z,0.56
2019-01-30T07:07:44.321Z,0.51
2019-01-30T07:08:19.729Z,0.37
2019-01-30T07:08:55.144Z,0.30
2019-01-30T07:09:30.583Z,0.29
2019-01-30T07:10:09.353Z,0.27
2019-01-30T07:10:45.055Z,0.46
2019-01-30T07:11:20.494Z,0.42
2019-01-30T07:11:55.900Z,0.34
2019-01-30T07:12:31.390Z,0.29
2019-01-30T07:13:06.865Z,0.37
2019-01-30T07:13:42.267Z,0.57
2019-01-30T07:14:17.648Z,0.65
2019-01-30T07:14:53.050Z,0.56
2019-01-30T07:15:28.724Z,0.50
2019-01-30T07:16:04.353Z,0.47
2019-01-30T07:16:39.813Z,0.41
2019-01-30T07:17:15.232Z,0.42
2019-01-30T07:17:50.978Z,0.50
2019-01-30T07:18:26.483Z,0.54
2019-01-30T07:19:01.965Z,0.49
2019-01-30T07:19:37.410Z,0.52
2019-01-30T07:20:13.382Z,0.64
2019-01-30T07:20:48.800Z,0.65
2019-01-30T07:21:24.237Z,0.63
2019-01-30T07:21:59.728Z,0.62
2019-01-30T07:22:35.378Z,0.74
2019-01-30T07:23:10.778Z,0.78
2019-01-30T07:23:46.227Z,0.71
2019-01-30T07:24:21.903Z,0.69
2019-01-30T07:24:57.679Z,0.57
2019-01-30T07:25:33.136Z,0.73
2019-01-30T07:26:08.828Z,0.69
2019-01-30T07:26:44.515Z,0.58
2019-01-30T07:27:19.916Z,0.47
2019-01-30T07:27:55.427Z,0.43
2019-01-30T07:28:31.394Z,0.41
2019-01-30T07:29:07.126Z,0.42
2019-01-30T07:29:42.530Z,0.36
2019-01-30T07:30:29.475Z,0.45
2019-01-30T07:31:05.029Z,0.62
2019-01-30T07:31:40.438Z,0.72
2019-01-30T07:32:15.845Z,0.56
2019-01-30T07:32:51.370Z,0.67
2019-01-30T07:33:26.828Z,0.69
2019-01-30T07:34:02.296Z,0.76
2019-01-30T07:34:37.773Z,0.65
2019-01-30T07:35:13.175Z,0.80
2019-01-30T07:35:48.603Z,0.80
2019-01-30T07:36:24.345Z,0.83
2019-01-30T07:36:59.988Z,0.81
2019-01-30T07:37:35.604Z,0.98
2019-01-30T07:38:11.010Z,1.02
2019-01-30T07:38:46.410Z,0.97
2019-01-30T07:39:21.830Z,0.87
2019-01-30T07:39:57.556Z,0.82
2019-01-30T07:40:32.989Z,0.65
2019-01-30T07:41:08.432Z,0.62
2019-01-30T07:41:43.844Z,0.50
2019-01-30T07:42:19.346Z,0.45
2019-01-30T07:42:55.379Z,0.49
2019-01-30T07:43:31.138Z,0.52
2019-01-30T07:44:07.010Z,0.63
2019-01-30T07:44:50.461Z,0.69
2019-01-30T07:45:20.863Z,0.70
2019-01-30T07:45:56.635Z,0.64
2019-01-30T07:46:32.296Z,0.68
2019-01-30T07:47:07.803Z,0.70
2019-01-30T07:47:43.273Z,0.71
2019-01-30T07:48:18.705Z,0.70
2019-01-30T07:48:54.136Z,0.56
2019-01-30T07:49:29.606Z,0.41
2019-01-30T07:50:06.439Z,0.56
2019-01-30T07:50:41.834Z,0.74
2019-01-30T07:51:17.563Z,0.68
2019-01-30T07:51:53.356Z,0.70
2019-01-30T07:52:28.925Z,0.62
2019-01-30T07:53:04.536Z,0.54
2019-01-30T07:53:39.951Z,0.64
2019-01-30T07:54:15.342Z,0.56
2019-01-30T07:54:51.047Z,0.68
2019-01-30T07:55:26.473Z,0.63